LEVC Airport Information

Runway Information
Runway 04 Length 5394 ft width 148 ft
Elevation 205 ft Threshold 0 ft Heading 38
Runway 22 Length 5394 ft Width 148 ft
Elevation 188 ft Threshold 0 ft Heading 218
Runway 12 Length 8858 ft width 148 ft
Elevation 225 ft Threshold 0 ft Heading 116
Runway 30 Length 8858 ft Width 148 ft
Elevation 172 ft Threshold 0 ft Heading 296
Airport Frequencies
Type APP Name APP Frequency 120.1 MHZ
Type ATIS Name ATIS Frequency 121.075 MHZ
Type GND Name GND Frequency 121.7 MHZ
Type TWR Name TWR Frequency 118.55 MHZ
Airport Navaids
Type NDB Name Valencia Frequency 400 KHZ
Type NDB Name Valencia Frequency 340 KHZ
Type NDB Name Sagunto Frequency 356 KHZ
Type VOR-DME Name Valencia Frequency 116100 KHZ
Airport Weather Information & NOTAM
ADDS - METARS form results

(1859 UTC 22 June 2018)
 
METAR text: LEVC 221830Z 12010KT CAVOK 29/14 Q1015 NOSIG
Conditions at: LEVC (VALENCIA (CIV/MI, ES) observed 1830 UTC 22 June 2018
Temperature: 29.0°C (84°F)
Dewpoint: 14.0°C (57°F) [RH = 40%]
Pressure (altimeter): 29.97 inches Hg (1015.0 mb)
Winds: from the ESE (120 degrees) at 12 MPH (10 knots; 5.2 m/s)
Visibility: 6 or more miles (10+ km)
Ceiling: ceiling and visibility are OK
Clouds: unknown
Weather: no significant weather observed at this time

METAR text: LEVC 221800Z 12009KT CAVOK 29/14 Q1015 NOSIG
Conditions at: LEVC (VALENCIA (CIV/MI, ES) observed 1800 UTC 22 June 2018
Temperature: 29.0°C (84°F)
Dewpoint: 14.0°C (57°F) [RH = 40%]
Pressure (altimeter): 29.97 inches Hg (1015.0 mb)
Winds: from the ESE (120 degrees) at 10 MPH (9 knots; 4.7 m/s)
Visibility: 6 or more miles (10+ km)
Ceiling: ceiling and visibility are OK
Clouds: unknown
Weather: no significant weather observed at this time